Time;durP1;ratioP1;P1;durP2;ratioP2;P2;SDS_P1;SDS_P2;PMS_P1;PMS_P2;Temp;Humidity;BMP_temperature;BMP_pressure;BME280_temperature;BME280_humidity;BME280_pressure;Samples;Min_cycle;Max_cycle;Signal;HPM_P1;HPM_P2
2022/01/21 00:00:35;;;;;;;10.67;3.37;;;;;;;-0.76;100.00;96235.81;5071246;28;20213;-56
2022/01/21 00:03:01;;;;;;;5.70;2.93;;;;;;;-0.71;100.00;96242.94;5071462;28;20202;-54
2022/01/21 00:05:26;;;;;;;7.37;3.10;;;;;;;-0.67;100.00;96233.97;5071362;28;20193;-54
2022/01/21 00:07:51;;;;;;;5.53;3.00;;;;;;;-0.62;100.00;96235.72;5071514;28;20260;-56
2022/01/21 00:10:17;;;;;;;9.73;3.60;;;;;;;-0.61;100.00;96229.25;5071286;28;20198;-48
2022/01/21 00:12:42;;;;;;;6.37;2.97;;;;;;;-0.66;100.00;96230.19;5071373;28;20234;-59
2022/01/21 00:15:10;;;;;;;5.80;2.93;;;;;;;-0.64;100.00;96238.72;5071390;28;20197;-58
2022/01/21 00:17:36;;;;;;;7.93;3.17;;;;;;;-0.61;100.00;96242.66;5071458;28;20207;-58
2022/01/21 00:30:58;;;;;;;10.47;3.23;;;;;;;-0.58;100.00;96247.41;5055769;28;20216;-66
2022/01/21 00:33:23;;;;;;;6.23;2.90;;;;;;;-0.52;100.00;96262.25;5070065;28;20190;-67
2022/01/21 00:35:49;;;;;;;8.07;3.10;;;;;;;-0.58;100.00;96250.88;5071005;28;20277;-68
2022/01/21 00:38:14;;;;;;;7.07;2.53;;;;;;;-0.56;100.00;96250.56;5071278;28;20278;-65
2022/01/21 00:40:40;;;;;;;7.67;3.20;;;;;;;-0.54;100.00;96243.00;5071268;28;20241;-66
2022/01/21 00:45:31;;;;;;;7.53;3.33;;;;;;;-0.59;100.00;96251.97;5055164;28;20580;-54
2022/01/21 00:47:57;;;;;;;6.93;3.10;;;;;;;-0.63;100.00;96255.59;5071443;28;20210;-49
2022/01/21 00:50:22;;;;;;;5.37;2.90;;;;;;;-0.63;100.00;96255.59;5070619;28;20292;-48
2022/01/21 00:52:47;;;;;;;5.40;2.60;;;;;;;-0.65;100.00;96252.44;5070476;28;20317;-53
2022/01/21 00:55:13;;;;;;;6.60;3.07;;;;;;;-0.56;100.00;96255.91;5070667;28;20551;-54
2022/01/21 00:57:38;;;;;;;9.37;2.73;;;;;;;-0.60;100.00;96261.13;5070740;28;20209;-58
2022/01/21 01:00:07;;;;;;;7.20;3.10;;;;;;;-0.58;100.00;96247.41;5070658;28;20247;-58
2022/01/21 01:02:32;;;;;;;7.87;2.77;;;;;;;-0.59;100.00;96262.69;5070683;28;20247;-58
2022/01/21 01:04:57;;;;;;;10.43;3.00;;;;;;;-0.59;100.00;96256.53;5070877;28;20289;-68
2022/01/21 01:07:23;;;;;;;6.53;3.10;;;;;;;-0.58;100.00;96256.22;5071198;28;20200;-53
2022/01/21 01:09:52;;;;;;;5.57;2.90;;;;;;;-0.60;100.00;96258.44;5070958;28;20208;-56
2022/01/21 01:12:31;;;;;;;10.33;3.30;;;;;;;-0.64;100.00;96267.41;5070847;28;20281;-52
2022/01/21 01:20:27;;;;;;;5.60;2.97;;;;;;;-0.55;100.00;96269.03;5054957;28;20244;-55
2022/01/21 01:23:03;;;;;;;6.30;3.27;;;;;;;-0.50;100.00;96270.78;5070069;28;20195;-54
2022/01/21 01:28:12;;;;;;;7.17;3.10;;;;;;;-0.46;100.00;96277.09;5054681;28;20202;-67
2022/01/21 01:30:38;;;;;;;5.67;3.27;;;;;;;-0.43;100.00;96277.25;5069765;28;20198;-67
2022/01/21 01:33:08;;;;;;;7.57;3.20;;;;;;;-0.40;100.00;96273.19;5069846;28;20194;-67
2022/01/21 01:35:34;;;;;;;6.13;3.17;;;;;;;-0.45;100.00;96273.31;5069848;28;20255;-67
2022/01/21 01:41:06;;;;;;;8.70;3.23;;;;;;;-0.34;100.00;96279.97;5012965;28;20241;-67
2022/01/21 01:51:26;;;;;;;7.13;3.20;;;;;;;-0.22;100.00;96288.19;5054562;28;20282;-56
2022/01/21 01:53:57;;;;;;;7.90;3.27;;;;;;;-0.17;100.00;96285.38;5054319;28;20212;-55
2022/01/21 01:56:31;;;;;;;7.90;3.10;;;;;;;-0.18;100.00;96297.22;5069798;28;20240;-53
2022/01/21 01:58:56;;;;;;;5.23;3.10;;;;;;;-0.22;100.00;96301.59;5069492;28;20215;-49
2022/01/21 02:01:21;;;;;;;7.73;3.50;;;;;;;-0.18;100.00;96294.53;5070218;28;20214;-58
2022/01/21 02:03:47;;;;;;;7.80;3.10;;;;;;;-0.18;100.00;96299.91;5069617;28;20214;-57
2022/01/21 02:06:12;;;;;;;7.30;3.40;;;;;;;-0.20;100.00;96302.91;5069454;28;20229;-58
2022/01/21 02:08:38;;;;;;;6.77;3.27;;;;;;;-0.24;100.00;96298.47;5069221;28;20190;-58
2022/01/21 02:11:03;;;;;;;9.47;3.40;;;;;;;-0.25;100.00;96296.88;5069596;28;20197;-58
2022/01/21 02:13:39;;;;;;;5.60;3.20;;;;;;;-0.29;100.00;96293.25;5069126;28;20206;-59
2022/01/21 02:16:30;;;;;;;7.80;3.60;;;;;;;-0.28;100.00;96292.13;5069662;28;20302;-58
2022/01/21 02:21:44;;;;;;;7.63;3.13;;;;;;;-0.21;100.00;96292.47;5054172;28;20212;-69
2022/01/21 02:24:17;;;;;;;7.60;3.07;;;;;;;-0.26;100.00;96289.91;5069389;28;20198;-69
2022/01/21 02:26:44;;;;;;;7.97;3.20;;;;;;;-0.22;100.00;96277.44;5053222;28;20231;-69
2022/01/21 02:29:10;;;;;;;5.80;3.43;;;;;;;-0.21;100.00;96287.09;5069688;28;20607;-70
2022/01/21 02:31:38;;;;;;;7.07;3.07;;;;;;;-0.25;100.00;96278.09;5070058;28;20283;-69
2022/01/21 02:34:06;;;;;;;8.77;3.53;;;;;;;-0.24;100.00;96285.03;5069432;28;20197;-70
2022/01/21 02:36:32;;;;;;;9.07;3.33;;;;;;;-0.27;100.00;96285.66;5069308;28;20212;-56
2022/01/21 02:38:58;;;;;;;8.57;3.30;;;;;;;-0.24;100.00;96290.41;5069646;28;20203;-56
2022/01/21 02:41:23;;;;;;;6.00;3.10;;;;;;;-0.26;100.00;96276.50;5069194;28;20279;-56
2022/01/21 02:43:49;;;;;;;7.27;3.40;;;;;;;-0.15;100.00;96283.16;5069319;28;20214;-55
2022/01/21 02:46:16;;;;;;;6.97;3.43;;;;;;;-0.17;100.00;96280.00;5069412;28;20280;-55
2022/01/21 02:48:42;;;;;;;5.90;3.10;;;;;;;-0.25;100.00;96278.88;5069238;28;20194;-55
2022/01/21 02:51:12;;;;;;;7.07;3.07;;;;;;;-0.26;100.00;96271.94;5069362;28;20207;-53
2022/01/21 02:54:03;;;;;;;6.80;3.20;;;;;;;-0.27;100.00;96282.97;5069552;28;20272;-66
2022/01/21 02:56:25;;;;;;;7.80;3.40;;;;;;;-0.29;100.00;96277.16;5055015;28;20281;-59
2022/01/21 02:58:51;;;;;;;7.67;3.23;;;;;;;-0.32;100.00;96293.88;5072387;28;20221;-58
2022/01/21 03:01:17;;;;;;;8.10;3.13;;;;;;;-0.38;100.00;96285.16;5072518;28;20218;-58
2022/01/21 03:03:44;;;;;;;7.33;3.07;;;;;;;-0.37;100.00;96285.94;5072546;28;20199;-58
2022/01/21 03:06:09;;;;;;;6.93;3.43;;;;;;;-0.37;100.00;96277.91;5072570;28;20195;-59
2022/01/21 03:08:35;;;;;;;6.60;3.30;;;;;;;-0.33;100.00;96281.53;5072636;28;20196;-58
2022/01/21 03:11:00;;;;;;;7.90;3.27;;;;;;;-0.39;100.00;96280.13;5072583;28;20198;-58
2022/01/21 03:13:25;;;;;;;7.00;3.03;;;;;;;-0.43;100.00;96296.03;5072393;28;20191;-52
2022/01/21 03:15:53;;;;;;;8.23;3.40;;;;;;;-0.40;100.00;96305.38;5072267;28;20221;-61
2022/01/21 03:18:20;;;;;;;8.53;3.63;;;;;;;-0.42;100.00;96304.88;5072076;28;20198;-57
2022/01/21 03:20:46;;;;;;;5.67;3.03;;;;;;;-0.38;100.00;96300.47;5072602;28;20207;-57
2022/01/21 03:23:17;;;;;;;8.60;3.10;;;;;;;-0.30;100.00;96305.06;5072327;28;20201;-57
2022/01/21 03:25:46;;;;;;;7.77;3.50;;;;;;;-0.31;100.00;96311.53;5072697;28;20256;-56
2022/01/21 03:28:12;;;;;;;7.27;3.17;;;;;;;-0.28;100.00;96310.91;5071916;28;20240;-57
2022/01/21 03:30:38;;;;;;;7.03;3.13;;;;;;;-0.27;100.00;96315.16;5072009;28;20217;-58
2022/01/21 03:33:03;;;;;;;7.97;3.43;;;;;;;-0.29;100.00;96317.38;5072034;28;20190;-59
2022/01/21 03:35:29;;;;;;;8.00;3.40;;;;;;;-0.27;100.00;96307.94;5072001;28;20201;-56
2022/01/21 03:37:55;;;;;;;7.07;3.20;;;;;;;-0.25;100.00;96315.66;5071957;28;20190;-54
2022/01/21 03:40:21;;;;;;;7.33;3.23;;;;;;;-0.21;100.00;96311.25;5072322;28;20202;-56
2022/01/21 03:42:46;;;;;;;10.50;3.17;;;;;;;-0.20;100.00;96319.00;5072076;28;20333;-56
2022/01/21 03:45:13;;;;;;;6.80;3.07;;;;;;;-0.16;100.00;96316.47;5071770;28;20199;-60
2022/01/21 03:47:39;;;;;;;7.87;3.67;;;;;;;-0.21;100.00;96311.25;5072330;28;20240;-56
2022/01/21 03:50:30;;;;;;;5.20;2.90;;;;;;;-0.19;100.00;96319.75;5071761;28;20203;-58
2022/01/21 03:52:56;;;;;;;7.40;3.50;;;;;;;-0.19;100.00;96319.75;5072019;28;20214;-59
2022/01/21 03:55:21;;;;;;;4.93;2.97;;;;;;;-0.17;100.00;96317.56;5072030;28;20203;-58
2022/01/21 03:57:47;;;;;;;5.87;3.00;;;;;;;-0.24;100.00;96322.59;5071556;28;20197;-58
2022/01/21 04:00:18;;;;;;;5.37;3.10;;;;;;;-0.27;100.00;96313.28;5071921;28;20203;-58
2022/01/21 04:02:44;;;;;;;7.07;2.97;;;;;;;-0.26;100.00;96319.44;5072111;28;20194;-58
2022/01/21 04:05:09;;;;;;;8.60;3.20;;;;;;;-0.29;100.00;96320.84;5071779;28;20271;-59
2022/01/21 04:07:35;;;;;;;6.73;2.90;;;;;;;-0.30;100.00;96318.47;5071420;28;20195;-65
2022/01/21 04:10:00;;;;;;;6.00;3.17;;;;;;;-0.36;100.00;96319.72;5071425;28;20202;-59
2022/01/21 04:12:25;;;;;;;6.47;3.10;;;;;;;-0.37;100.00;96326.19;5071105;28;20170;-58
2022/01/21 04:14:51;;;;;;;9.63;3.50;;;;;;;-0.45;100.00;96316.22;5071171;28;20203;-58
2022/01/21 04:17:18;;;;;;;5.67;2.90;;;;;;;-0.52;100.00;96327.41;5071815;28;20236;-58
2022/01/21 04:19:43;;;;;;;8.17;3.10;;;;;;;-0.54;100.00;96323.44;5071286;28;20203;-58
2022/01/21 04:22:09;;;;;;;7.60;2.93;;;;;;;-0.59;100.00;96319.00;5071686;28;20250;-59
2022/01/21 04:24:35;;;;;;;6.73;3.40;;;;;;;-0.62;100.00;96318.84;5071171;28;20265;-58
2022/01/21 04:27:00;;;;;;;6.80;3.23;;;;;;;-0.66;100.00;96310.63;5071742;28;20202;-67
2022/01/21 04:29:25;;;;;;;8.60;3.10;;;;;;;-0.67;100.00;96309.03;5070915;28;20210;-56
2022/01/21 04:31:51;;;;;;;7.17;3.40;;;;;;;-0.63;100.00;96311.88;5071110;28;20229;-56
2022/01/21 04:34:16;;;;;;;6.83;3.30;;;;;;;-0.66;100.00;96321.34;5071109;28;20237;-57
2022/01/21 04:36:42;;;;;;;7.23;3.57;;;;;;;-0.62;100.00;96321.53;5071245;28;20202;-56
2022/01/21 04:39:15;;;;;;;8.10;3.70;;;;;;;-0.56;100.00;96314.91;5070924;28;20220;-58
2022/01/21 04:47:14;;;;;;;8.50;3.50;;;;;;;-0.49;100.00;96310.69;5071444;28;20203;-55
2022/01/21 04:49:40;;;;;;;5.30;3.37;;;;;;;-0.46;100.00;96336.09;5054971;28;20281;-52
2022/01/21 04:52:07;;;;;;;9.67;3.63;;;;;;;-0.42;100.00;96331.69;5071225;28;20297;-50
2022/01/21 04:54:38;;;;;;;8.00;3.67;;;;;;;-0.43;100.00;96336.25;5071125;28;20209;-48
2022/01/21 04:57:05;;;;;;;5.73;3.70;;;;;;;-0.44;100.00;96339.25;5070840;28;20216;-51
2022/01/21 04:59:32;;;;;;;6.10;3.50;;;;;;;-0.42;100.00;96345.09;5071050;28;20213;-47
2022/01/21 05:01:57;;;;;;;10.27;3.93;;;;;;;-0.42;100.00;96339.75;5071046;28;20202;-56
2022/01/21 05:04:23;;;;;;;6.63;3.40;;;;;;;-0.40;100.00;96346.38;5070885;28;20236;-51
2022/01/21 05:06:49;;;;;;;4.63;3.60;;;;;;;-0.38;100.00;96348.75;5070985;28;20218;-46
2022/01/21 05:09:18;;;;;;;6.33;3.60;;;;;;;-0.36;100.00;96357.28;5070886;28;20288;-51
2022/01/21 05:11:47;;;;;;;6.80;3.40;;;;;;;-0.33;100.00;96357.44;5070874;28;20203;-48
2022/01/21 05:14:23;;;;;;;5.17;3.40;;;;;;;-0.25;100.00;96347.84;5070236;28;20202;-51
2022/01/21 05:16:51;;;;;;;8.07;3.77;;;;;;;-0.31;100.00;96354.47;5070546;28;20337;-52
2022/01/21 05:19:18;;;;;;;8.73;3.93;;;;;;;-0.33;100.00;96354.75;5070126;28;20208;-50
2022/01/21 05:21:46;;;;;;;8.67;3.40;;;;;;;-0.31;100.00;96360.63;5070388;28;20215;-58
2022/01/21 05:24:13;;;;;;;8.80;3.77;;;;;;;-0.28;100.00;96364.56;5070191;28;20336;-59
2022/01/21 05:26:40;;;;;;;7.23;3.67;;;;;;;-0.28;100.00;96375.31;5070117;28;20186;-58
2022/01/21 05:29:09;;;;;;;5.83;3.43;;;;;;;-0.26;100.00;96367.72;5070593;28;20202;-58
2022/01/21 05:31:35;;;;;;;8.80;4.37;;;;;;;-0.26;100.00;96373.88;5070310;28;20196;-58
2022/01/21 05:34:02;;;;;;;8.73;3.80;;;;;;;-0.24;100.00;96377.06;5069655;28;20208;-59
2022/01/21 05:36:30;;;;;;;7.53;3.67;;;;;;;-0.28;100.00;96372.63;5069712;28;20248;-58
2022/01/21 05:38:56;;;;;;;6.80;3.57;;;;;;;-0.27;100.00;96369.63;5070274;28;20195;-55
2022/01/21 05:41:25;;;;;;;8.70;3.50;;;;;;;-0.20;100.00;96387.94;5069713;28;20222;-59
2022/01/21 05:43:59;;;;;;;7.93;3.63;;;;;;;-0.29;100.00;96385.22;5070102;28;20233;-58
2022/01/21 05:46:40;;;;;;;9.73;3.57;;;;;;;-0.29;100.00;96381.78;5070620;28;20226;-59
2022/01/21 05:49:05;;;;;;;10.63;3.60;;;;;;;-0.28;100.00;96380.66;5070449;28;20184;-59
2022/01/21 05:51:30;;;;;;;6.97;3.40;;;;;;;-0.32;100.00;96385.84;5054299;28;20284;-59
2022/01/21 05:53:56;;;;;;;6.67;3.57;;;;;;;-0.33;100.00;96395.00;5069934;28;20198;-59
2022/01/21 05:56:24;;;;;;;6.60;3.30;;;;;;;-0.23;100.00;96420.75;5070340;28;20289;-58
2022/01/21 05:58:56;;;;;;;4.40;2.60;;;;;;;-0.33;100.00;96423.72;5070099;28;20190;-57
2022/01/21 06:01:21;;;;;;;3.90;2.30;;;;;;;-0.47;100.00;96425.72;5069518;28;20206;-71
2022/01/21 06:03:46;;;;;;;8.73;2.43;;;;;;;-0.54;100.00;96428.03;5069665;28;20225;-71
2022/01/21 06:06:12;;;;;;;6.30;2.30;;;;;;;-0.51;100.00;96430.13;5069651;28;20284;-72
2022/01/21 06:08:38;;;;;;;6.27;2.27;;;;;;;-0.58;100.00;96435.13;5070319;28;20253;-72
2022/01/21 06:11:04;;;;;;;4.90;2.43;;;;;;;-0.64;100.00;96447.06;5069479;28;20197;-72
2022/01/21 06:13:30;;;;;;;3.93;1.90;;;;;;;-0.70;100.00;96459.78;5069801;28;20278;-75
2022/01/21 06:15:56;;;;;;;3.63;1.70;;;;;;;-0.74;100.00;96453.47;5069608;28;20232;-61
2022/01/21 06:18:22;;;;;;;5.43;2.87;;;;;;;-0.72;100.00;96461.19;5053490;28;20172;-53
2022/01/21 06:20:47;;;;;;;5.10;2.50;;;;;;;-0.74;100.00;96463.38;5069289;28;20217;-73
2022/01/21 06:23:12;;;;;;;5.03;1.83;;;;;;;-0.71;100.00;96473.50;5069255;28;20194;-72
2022/01/21 06:25:38;;;;;;;6.37;2.00;;;;;;;-0.77;100.00;96463.97;5069064;28;20206;-73
2022/01/21 06:28:04;;;;;;;8.30;2.80;;;;;;;-0.77;100.00;96472.03;5069015;28;20194;-72
2022/01/21 06:30:29;;;;;;;4.50;2.17;;;;;;;-0.78;100.00;96475.81;5068185;28;20218;-73
2022/01/21 06:32:55;;;;;;;3.93;1.93;;;;;;;-0.79;100.00;96477.72;5069234;28;20198;-73
2022/01/21 06:35:20;;;;;;;8.13;3.80;;;;;;;-0.71;100.00;96465.47;5068891;28;20199;-60
2022/01/21 06:37:45;;;;;;;6.80;3.20;;;;;;;-0.74;100.00;96477.59;5069220;28;20198;-71
2022/01/21 06:40:11;;;;;;;6.20;3.13;;;;;;;-0.78;100.00;96473.13;5053207;28;20186;-73
2022/01/21 06:42:37;;;;;;;6.50;2.53;;;;;;;-0.89;100.00;96477.16;5069001;28;20236;-70
2022/01/21 06:45:03;;;;;;;8.03;4.07;;;;;;;-0.91;100.00;96476.69;5069012;28;20208;-70
2022/01/21 06:47:29;;;;;;;7.80;2.73;;;;;;;-0.96;100.00;96474.91;5069053;28;20303;-70
2022/01/21 06:49:58;;;;;;;6.80;2.20;;;;;;;-1.01;100.00;96479.59;5068842;28;20185;-72
2022/01/21 06:52:24;;;;;;;5.27;2.17;;;;;;;-1.01;100.00;96480.38;5069334;28;20321;-68
2022/01/21 06:54:50;;;;;;;5.33;2.50;;;;;;;-1.02;100.00;96491.41;5069093;28;20289;-54
2022/01/21 06:57:15;;;;;;;8.53;2.50;;;;;;;-1.07;100.00;96486.13;5069226;28;20201;-77
2022/01/21 06:59:41;;;;;;;5.87;2.30;;;;;;;-1.08;100.00;96497.97;5068654;28;20226;-67
2022/01/21 07:02:06;;;;;;;7.20;3.43;;;;;;;-1.10;100.00;96498.25;5068577;28;20288;-72
2022/01/21 07:04:33;;;;;;;10.07;4.13;;;;;;;-1.13;100.00;96498.84;5068556;28;20201;-70
2022/01/21 07:06:59;;;;;;;4.43;2.47;;;;;;;-1.11;100.00;96502.03;5068879;28;20256;-71
2022/01/21 07:09:26;;;;;;;5.43;2.60;;;;;;;-1.06;100.00;96498.47;5068846;28;20198;-70
2022/01/21 07:11:51;;;;;;;9.53;2.70;;;;;;;-1.05;100.00;96500.81;5068782;28;20207;-70
2022/01/21 07:14:16;;;;;;;6.93;2.63;;;;;;;-0.92;100.00;96491.94;5069131;28;20202;-57
2022/01/21 07:16:42;;;;;;;7.23;2.40;;;;;;;-0.85;100.00;96496.88;5068727;28;20207;-56
2022/01/21 07:19:07;;;;;;;4.87;2.60;;;;;;;-0.81;100.00;96495.19;5068239;28;20185;-55
2022/01/21 07:21:33;;;;;;;5.73;2.47;;;;;;;-0.72;100.00;96501.41;5068480;28;20280;-53
2022/01/21 07:23:58;;;;;;;11.47;3.10;;;;;;;-0.64;100.00;96506.03;5068334;28;20206;-56
2022/01/21 07:26:23;;;;;;;3.60;2.37;;;;;;;-0.57;100.00;96511.78;5068680;28;20218;-56
2022/01/21 07:28:49;;;;;;;4.10;2.30;;;;;;;-0.49;100.00;96527.94;5068168;28;20239;-59
2022/01/21 07:31:14;;;;;;;7.07;2.73;;;;;;;-0.34;100.00;96524.88;5068184;28;20289;-59
2022/01/21 07:33:39;;;;;;;5.50;2.77;;;;;;;-0.13;100.00;96534.00;5068285;28;20263;-55
2022/01/21 07:36:06;;;;;;;4.80;3.00;;;;;;;-0.01;100.00;96530.75;5068374;28;20209;-57
2022/01/21 07:38:31;;;;;;;9.17;2.83;;;;;;;0.15;100.00;96529.25;5068224;28;20206;-55
2022/01/21 07:40:56;;;;;;;9.67;3.10;;;;;;;0.44;100.00;96524.19;5068542;28;20211;-56
2022/01/21 07:43:22;;;;;;;10.57;3.23;;;;;;;0.37;100.00;96521.16;5071169;28;20199;-56
2022/01/21 07:45:47;;;;;;;7.23;2.80;;;;;;;0.25;100.00;96523.59;5071635;28;20208;-54
2022/01/21 07:48:12;;;;;;;10.50;3.33;;;;;;;0.25;100.00;96512.88;5071624;28;20207;-64
2022/01/21 07:50:39;;;;;;;9.30;3.50;;;;;;;0.35;100.00;96512.59;5071337;28;20181;-57
2022/01/21 07:53:19;;;;;;;8.20;3.30;;;;;;;0.51;100.00;96527.19;5071824;28;20302;-59
2022/01/21 07:55:45;;;;;;;7.50;3.10;;;;;;;0.54;100.00;96531.94;5071385;28;20210;-59
2022/01/21 07:58:12;;;;;;;9.40;3.77;;;;;;;0.44;100.00;96526.88;5071847;28;20199;-61
2022/01/21 08:00:38;;;;;;;8.80;4.03;;;;;;;0.32;100.00;96526.63;5071541;28;20222;-64
2022/01/21 08:03:04;;;;;;;9.63;3.77;;;;;;;0.17;100.00;96516.31;5070751;28;20208;-62
2022/01/21 08:05:32;;;;;;;7.00;3.60;;;;;;;0.18;100.00;96523.25;5071469;28;20200;-67
2022/01/21 08:07:58;;;;;;;8.93;3.43;;;;;;;0.13;100.00;96520.72;5071295;28;20197;-67
2022/01/21 08:10:23;;;;;;;6.47;3.80;;;;;;;0.07;100.00;96511.19;5071363;28;20251;-65
2022/01/21 08:12:48;;;;;;;6.97;3.83;;;;;;;0.03;100.00;96526.34;5071365;28;20200;-66
2022/01/21 08:15:14;;;;;;;8.47;3.63;;;;;;;0.00;100.00;96524.28;5071083;28;20209;-65
2022/01/21 08:17:39;;;;;;;8.83;3.50;;;;;;;0.14;100.00;96526.88;5070866;28;20166;-62
2022/01/21 08:20:05;;;;;;;9.83;3.60;;;;;;;0.32;100.00;96518.59;5071539;28;20223;-69
2022/01/21 08:22:30;;;;;;;10.00;3.83;;;;;;;0.54;100.00;96526.56;5071413;28;20213;-65
2022/01/21 08:24:56;;;;;;;8.17;4.40;;;;;;;0.58;100.00;96522.16;5071237;28;20203;-59
2022/01/21 08:27:22;;;;;;;10.47;4.10;;;;;;;1.20;100.00;96520.06;5071034;28;20221;-55
2022/01/21 08:29:48;;;;;;;9.63;4.53;;;;;;;1.52;100.00;96509.59;5070514;28;20334;-53
2022/01/21 08:32:13;;;;;;;7.50;3.33;;;;;;;1.66;100.00;96522.88;5071244;28;20215;-57
2022/01/21 08:34:39;;;;;;;5.13;3.30;;;;;;;1.70;100.00;96521.94;5070768;28;20231;-58
2022/01/21 08:37:05;;;;;;;7.73;3.20;;;;;;;1.37;100.00;96523.53;5070861;28;20200;-57
2022/01/21 08:39:30;;;;;;;7.77;3.43;;;;;;;1.16;100.00;96522.56;5055292;28;20192;-53
2022/01/21 08:41:56;;;;;;;11.27;3.60;;;;;;;1.05;100.00;96520.53;5070674;28;20279;-55
2022/01/21 08:44:21;;;;;;;6.40;3.43;;;;;;;1.07;100.00;96529.84;5071017;28;20196;-67
2022/01/21 08:46:47;;;;;;;8.90;3.47;;;;;;;0.99;100.00;96527.16;5071409;28;20201;-67
2022/01/21 08:49:12;;;;;;;10.77;4.03;;;;;;;0.66;100.00;96534.84;5070183;28;20184;-66
2022/01/21 08:51:55;;;;;;;7.53;3.30;;;;;;;0.75;100.00;96522.19;5070960;28;20189;-66
2022/01/21 08:54:21;;;;;;;7.83;3.80;;;;;;;0.75;100.00;96532.16;5069679;28;20204;-67
2022/01/21 08:56:49;;;;;;;9.33;3.87;;;;;;;1.38;100.00;96529.72;5070550;28;20208;-66
2022/01/21 08:59:16;;;;;;;7.97;3.70;;;;;;;2.49;100.00;96527.59;5054725;28;20574;-66
2022/01/21 09:01:43;;;;;;;6.83;3.43;;;;;;;3.09;100.00;96520.75;5070449;28;20206;-68
2022/01/21 09:04:08;;;;;;;5.83;3.17;;;;;;;3.28;100.00;96523.78;5070746;28;20200;-65
2022/01/21 09:06:33;;;;;;;10.13;3.37;;;;;;;2.88;100.00;96525.31;5070313;28;20201;-64
2022/01/21 09:08:59;;;;;;;8.20;3.47;;;;;;;2.65;100.00;96529.41;5070819;28;20634;-64
2022/01/21 09:11:25;;;;;;;7.53;3.23;;;;;;;2.32;100.00;96528.44;5070744;28;20228;-64
2022/01/21 09:13:52;;;;;;;9.87;4.10;;;;;;;2.06;100.00;96525.03;5070610;28;20202;-66
2022/01/21 09:16:18;;;;;;;13.93;3.80;;;;;;;1.91;100.00;96539.03;5070048;28;20201;-65
2022/01/21 09:18:59;;;;;;;10.20;4.93;;;;;;;1.61;100.00;96529.25;5070235;28;20229;-64
2022/01/21 09:21:27;;;;;;;9.10;4.27;;;;;;;1.54;100.00;96533.50;5070158;28;20209;-58
2022/01/21 09:23:53;;;;;;;8.00;3.37;;;;;;;1.42;100.00;96533.38;5070154;28;20275;-71
2022/01/21 09:26:22;;;;;;;4.90;3.23;;;;;;;1.12;100.00;96539.66;5070085;28;20201;-72
2022/01/21 09:28:48;;;;;;;8.07;3.60;;;;;;;1.12;100.00;96532.38;5070253;28;20198;-73
2022/01/21 09:31:15;;;;;;;6.67;3.60;;;;;;;1.73;100.00;96542.84;5070242;28;20199;-74
2022/01/21 09:33:41;;;;;;;8.27;3.67;;;;;;;2.45;100.00;96538.22;5070516;28;20190;-73
2022/01/21 09:36:08;;;;;;;12.67;5.80;;;;;;;2.42;100.00;96525.41;5070157;28;20343;-74
2022/01/21 09:38:34;;;;;;;11.13;3.83;;;;;;;2.40;100.00;96535.69;5070015;28;20221;-58
2022/01/21 09:41:00;;;;;;;7.80;3.97;;;;;;;2.06;100.00;96541.19;5069974;28;20230;-59
2022/01/21 09:43:26;;;;;;;5.83;3.37;;;;;;;2.56;100.00;96534.06;5070289;28;20205;-60
2022/01/21 09:45:54;;;;;;;9.17;3.43;;;;;;;2.68;100.00;96536.88;5070011;28;20202;-59
2022/01/21 09:48:28;;;;;;;10.57;3.60;;;;;;;2.94;100.00;96534.03;5069687;28;20198;-60
2022/01/21 09:50:57;;;;;;;7.57;3.77;;;;;;;2.80;100.00;96550.44;5069934;28;20198;-59
2022/01/21 09:53:28;;;;;;;7.60;3.23;;;;;;;2.81;100.00;96557.41;5069752;28;20206;-60
2022/01/21 09:56:03;;;;;;;9.73;3.63;;;;;;;2.41;100.00;96558.84;5069535;28;20202;-59
2022/01/21 09:58:29;;;;;;;8.70;3.60;;;;;;;2.10;100.00;96561.00;5069869;28;20201;-60
2022/01/21 10:00:57;;;;;;;9.77;3.30;;;;;;;1.75;100.00;96567.53;5069638;28;20220;-54
2022/01/21 10:03:23;;;;;;;6.67;3.23;;;;;;;1.71;100.00;96555.81;5069344;28;20209;-56
2022/01/21 10:05:51;;;;;;;9.57;3.50;;;;;;;1.41;100.00;96567.53;5069711;28;20232;-55
2022/01/21 10:08:20;;;;;;;6.13;2.93;;;;;;;1.24;100.00;96567.50;5069687;28;20204;-56
2022/01/21 10:10:45;;;;;;;7.00;3.43;;;;;;;1.46;100.00;96570.06;5069865;28;20205;-55
2022/01/21 10:13:14;;;;;;;11.77;3.60;;;;;;;1.66;100.00;96563.25;5069315;28;20209;-52
2022/01/21 10:15:40;;;;;;;7.63;3.53;;;;;;;1.46;100.00;96567.38;5069587;28;20618;-53
2022/01/21 10:18:15;;;;;;;9.07;3.83;;;;;;;1.38;100.00;96568.16;5069797;28;20197;-53
2022/01/21 10:21:04;;;;;;;8.30;3.10;;;;;;;1.35;100.00;96568.78;5069074;28;20204;-52
2022/01/21 10:23:31;;;;;;;7.50;2.90;;;;;;;1.34;100.00;96556.44;5069971;28;20224;-54
2022/01/21 10:26:11;;;;;;;4.23;2.50;;;;;;;1.49;100.00;96569.44;5069944;28;20185;-53
2022/01/21 10:28:40;;;;;;;6.33;3.07;;;;;;;1.97;100.00;96567.34;5069185;28;20192;-55
2022/01/21 10:31:14;;;;;;;9.90;3.57;;;;;;;2.37;100.00;96563.28;5069508;28;20229;-55
2022/01/21 10:33:53;;;;;;;8.50;3.10;;;;;;;2.40;100.00;96568.03;5069806;28;20237;-60
2022/01/21 10:36:25;;;;;;;5.40;2.77;;;;;;;2.32;100.00;96576.94;5069258;28;20201;-68
2022/01/21 10:38:56;;;;;;;5.80;2.77;;;;;;;2.34;100.00;96566.63;5069250;28;20213;-65
2022/01/21 10:41:30;;;;;;;8.50;2.70;;;;;;;2.22;100.00;96565.72;5069581;28;20300;-68
2022/01/21 10:44:09;;;;;;;9.43;3.30;;;;;;;1.93;100.00;96571.00;5069504;28;20173;-66
2022/01/21 10:46:35;;;;;;;5.83;3.20;;;;;;;1.93;100.00;96579.09;5068688;28;20205;-67
2022/01/21 10:49:06;;;;;;;8.67;3.27;;;;;;;1.79;100.00;96571.16;5069015;28;20218;-63
2022/01/21 10:51:35;;;;;;;8.43;3.40;;;;;;;1.80;100.00;96574.66;5068985;28;20201;-68
2022/01/21 10:54:22;;;;;;;6.00;3.20;;;;;;;1.72;100.00;96565.50;5069164;28;20202;-59
2022/01/21 10:57:07;;;;;;;5.77;3.17;;;;;;;1.44;100.00;96571.50;5068880;28;20194;-61
2022/01/21 10:59:47;;;;;;;6.13;3.40;;;;;;;1.34;100.00;96577.97;5052347;28;20201;-60
2022/01/21 11:02:13;;;;;;;7.20;3.70;;;;;;;1.10;100.00;96583.00;5051926;28;20245;-59
2022/01/21 11:04:43;;;;;;;9.57;4.07;;;;;;;1.13;100.00;96586.97;5069166;28;20198;-59
2022/01/21 11:07:47;;;;;;;10.77;4.97;;;;;;;1.11;100.00;96583.78;5069076;28;20188;-59
2022/01/21 11:10:31;;;;;;;11.67;5.23;;;;;;;1.24;100.00;96578.28;5018684;28;20205;-52
2022/01/21 11:12:57;;;;;;;14.90;5.63;;;;;;;1.59;100.00;96579.09;5052343;28;20269;-59
2022/01/21 11:15:22;;;;;;;7.73;3.87;;;;;;;1.96;100.00;96570.34;5068677;28;20197;-60
2022/01/21 11:17:58;;;;;;;9.07;3.40;;;;;;;2.32;100.00;96566.16;5054963;28;20174;-59
2022/01/21 11:20:31;;;;;;;10.33;4.30;;;;;;;2.57;100.00;96557.22;5056142;28;20232;-59
2022/01/21 11:23:00;;;;;;;6.90;3.30;;;;;;;2.27;100.00;96558.28;5072254;28;20289;-59
2022/01/21 11:25:45;;;;;;;9.30;3.63;;;;;;;2.11;100.00;96561.81;5071990;28;20292;-59
2022/01/21 11:28:45;;;;;;;9.40;3.50;;;;;;;1.84;100.00;96552.16;5072135;28;20198;-59
2022/01/21 11:31:13;;;;;;;6.70;2.77;;;;;;;1.77;100.00;96549.16;5050898;28;20238;-54
2022/01/21 11:33:38;;;;;;;7.03;2.87;;;;;;;1.66;100.00;96547.09;5072476;28;20227;-53
2022/01/21 11:36:05;;;;;;;8.77;3.37;;;;;;;1.43;100.00;96541.13;5072753;28;20607;-54
2022/01/21 11:38:35;;;;;;;8.20;3.07;;;;;;;1.40;100.00;96547.13;5071769;28;20201;-52
2022/01/21 11:41:02;;;;;;;8.20;3.13;;;;;;;1.25;100.00;96542.22;5071509;28;20218;-52
2022/01/21 11:43:30;;;;;;;4.87;2.73;;;;;;;1.15;100.00;96530.97;5071848;28;20291;-52
2022/01/21 11:50:59;;;;;;;8.23;2.87;;;;;;;1.29;100.00;96543.16;5056437;28;20202;-59
2022/01/21 11:53:48;;;;;;;7.63;2.50;;;;;;;1.16;100.00;96544.09;5071763;28;20207;-59
2022/01/21 11:56:49;;;;;;;6.33;2.87;;;;;;;1.05;100.00;96542.81;5071625;28;20208;-59
2022/01/21 12:02:00;;;;;;;8.33;3.00;;;;;;;1.29;100.00;96543.16;5056131;28;20355;-59
2022/01/21 12:04:44;;;;;;;8.53;3.10;;;;;;;1.17;100.00;96532.22;5071583;28;20208;-60
2022/01/21 12:07:34;;;;;;;5.33;2.40;;;;;;;1.04;100.00;96518.91;5055850;28;20197;-58
2022/01/21 12:10:11;;;;;;;6.53;2.77;;;;;;;0.87;100.00;96514.31;5055405;28;20208;-56
2022/01/21 12:12:48;;;;;;;7.73;2.50;;;;;;;0.83;100.00;96502.59;5071147;28;20281;-54
2022/01/21 12:15:55;;;;;;;6.10;2.60;;;;;;;0.96;100.00;96496.31;5054628;28;20294;-53
2022/01/21 12:21:06;;;;;;;7.20;2.40;;;;;;;1.19;100.00;96489.69;5055455;28;20219;-57
2022/01/21 12:23:43;;;;;;;4.37;2.40;;;;;;;1.19;100.00;96500.44;5070806;28;20294;-58